Time;durP1;ratioP1;P1;durP2;ratioP2;P2;SDS_P1;SDS_P2;PMS_P1;PMS_P2;Temp;Humidity;BMP_temperature;BMP_pressure;BME280_temperature;BME280_humidity;BME280_pressure;Samples;Min_cycle;Max_cycle;Signal;HPM_P1;HPM_P2
2022/04/01 00:00:42;;;;;;;5.45;4.68;;;;;;;0.80;87.98;100116.66;5017734;28;20068;-89
2022/04/01 00:03:09;;;;;;;5.30;4.80;;;;;;;0.81;87.41;100115.69;5017410;28;20058;-89
2022/04/01 00:05:38;;;;;;;7.22;4.93;;;;;;;0.82;87.98;100122.66;5016261;28;20053;-89
2022/04/01 00:08:04;;;;;;;5.20;4.40;;;;;;;0.80;87.69;100118.53;5016460;28;20447;-89
2022/04/01 00:10:29;;;;;;;5.50;4.60;;;;;;;0.81;87.54;100125.50;5000286;28;20061;-89
2022/04/01 00:12:58;;;;;;;5.03;4.32;;;;;;;0.81;87.60;100129.03;5016183;28;20108;-88
2022/04/01 00:15:24;;;;;;;4.80;4.30;;;;;;;0.79;88.27;100131.03;5015768;28;20025;-89
2022/04/01 00:17:49;;;;;;;4.20;3.80;;;;;;;0.79;87.92;100131.03;5016530;28;20087;-89
2022/04/01 00:20:18;;;;;;;5.45;4.00;;;;;;;0.68;88.34;100134.06;5016179;28;20080;-89
2022/04/01 00:22:44;;;;;;;4.30;3.90;;;;;;;0.72;88.65;100137.22;5032202;28;20040;-89
2022/04/01 00:25:12;;;;;;;5.45;4.03;;;;;;;0.74;88.34;100136.03;5015726;28;20478;-88
2022/04/01 00:27:40;;;;;;;4.15;3.70;;;;;;;0.67;88.71;100141.22;5015817;28;20072;-87
2022/04/01 00:30:06;;;;;;;5.07;4.28;;;;;;;0.68;88.12;100137.56;5015650;28;20021;-88
2022/04/01 00:32:32;;;;;;;4.55;4.00;;;;;;;0.58;89.08;100142.22;5016785;28;20034;-87
2022/04/01 00:34:58;;;;;;;7.38;4.53;;;;;;;0.49;88.78;100148.56;5015310;28;20034;-86
2022/04/01 00:37:23;;;;;;;4.43;3.78;;;;;;;0.43;88.77;100150.06;5015547;28;20025;-86
2022/04/01 00:39:49;;;;;;;4.43;3.47;;;;;;;0.41;89.24;100151.22;5015292;28;20041;-86
2022/04/01 00:42:14;;;;;;;5.45;3.90;;;;;;;0.41;89.40;100152.06;5015404;28;20029;-88
2022/04/01 00:44:41;;;;;;;4.90;3.70;;;;;;;0.35;88.72;100158.06;5015475;28;20042;-87
2022/04/01 00:47:14;;;;;;;3.70;3.40;;;;;;;0.34;88.93;100153.75;5014701;28;20401;-86
2022/04/01 00:49:43;;;;;;;3.80;3.50;;;;;;;0.30;89.59;100163.06;5015540;28;20088;-88
2022/04/01 00:52:15;;;;;;;4.13;3.72;;;;;;;0.32;89.31;100161.06;5015607;28;20072;-88
2022/04/01 00:54:44;;;;;;;3.67;3.35;;;;;;;0.30;89.83;100160.41;5015310;28;20041;-87
2022/04/01 00:57:13;;;;;;;6.43;3.92;;;;;;;0.33;89.58;100162.75;5015028;28;20037;-87
2022/04/01 00:59:39;;;;;;;4.80;4.22;;;;;;;0.25;89.09;100165.38;5015020;28;20034;-87
2022/04/01 01:02:06;;;;;;;4.18;3.28;;;;;;;0.19;90.25;100166.88;5015690;28;20044;-87
2022/04/01 01:04:31;;;;;;;4.60;3.53;;;;;;;0.17;90.22;100161.72;5015127;28;20033;-87
2022/04/01 01:06:59;;;;;;;5.10;3.63;;;;;;;0.18;90.00;100165.22;5015151;28;20029;-88
2022/04/01 01:09:27;;;;;;;4.68;3.25;;;;;;;0.17;90.34;100175.06;5014927;28;20068;-88
2022/04/01 01:11:57;;;;;;;4.63;3.60;;;;;;;0.23;89.91;100165.56;5014240;28;20041;-88
2022/04/01 01:14:33;;;;;;;4.35;3.30;;;;;;;0.23;89.83;100164.72;5014521;28;20058;-88
2022/04/01 01:17:00;;;;;;;3.95;3.22;;;;;;;0.28;89.58;100165.91;5015743;28;20117;-88
2022/04/01 01:19:26;;;;;;;4.00;3.60;;;;;;;0.33;90.53;100176.09;4998622;28;20029;-88
2022/04/01 01:21:56;;;;;;;3.92;3.33;;;;;;;0.28;90.20;100165.06;5014662;28;20041;-87
2022/04/01 01:24:28;;;;;;;3.35;3.00;;;;;;;0.32;90.23;100169.91;5014830;28;20103;-88
2022/04/01 01:26:55;;;;;;;3.38;3.08;;;;;;;0.31;89.98;100167.41;5014385;28;20038;-87
2022/04/01 01:29:29;;;;;;;3.60;3.30;;;;;;;0.31;90.38;100168.25;5014611;28;20048;-88
2022/04/01 01:31:57;;;;;;;3.75;3.30;;;;;;;0.31;89.80;100175.41;5015213;28;20026;-89
2022/04/01 01:34:23;;;;;;;4.00;3.28;;;;;;;0.40;90.30;100168.25;5014580;28;20087;-88
2022/04/01 01:36:50;;;;;;;4.65;3.40;;;;;;;0.26;90.48;100165.22;5014329;28;20437;-89
2022/04/01 01:39:19;;;;;;;3.10;2.90;;;;;;;0.17;90.14;100171.56;5015520;28;20037;-87
2022/04/01 01:41:45;;;;;;;4.13;3.63;;;;;;;0.20;90.15;100175.75;5014782;28;20537;-88
2022/04/01 01:44:12;;;;;;;4.88;3.58;;;;;;;0.19;90.30;100174.06;5015531;28;20364;-87
2022/04/01 01:46:47;;;;;;;5.53;3.60;;;;;;;0.18;90.25;100175.91;5013889;28;20486;-87
2022/04/01 01:49:12;;;;;;;4.07;3.53;;;;;;;0.17;90.18;100182.22;5015539;28;20076;-87
2022/04/01 01:57:10;;;;;;;4.53;3.63;;;;;;;0.20;90.74;100181.06;5011273;28;20044;-87
2022/04/01 01:59:36;;;;;;;5.85;3.53;;;;;;;0.25;90.37;100184.06;5014024;28;20033;-87
2022/04/01 02:02:05;;;;;;;4.00;3.55;;;;;;;0.17;90.87;100191.06;5013954;28;20044;-88
2022/04/01 02:04:34;;;;;;;6.07;3.47;;;;;;;0.15;90.98;100187.72;5014079;28;20385;-88
2022/04/01 02:07:00;;;;;;;4.03;3.63;;;;;;;0.22;90.98;100192.41;5013867;28;20088;-88
2022/04/01 02:09:28;;;;;;;4.90;3.45;;;;;;;0.30;90.82;100190.59;5014220;28;20029;-88
2022/04/01 02:11:54;;;;;;;4.15;3.58;;;;;;;0.19;90.54;100185.56;5013777;28;20026;-88
2022/04/01 02:14:22;;;;;;;5.78;4.15;;;;;;;0.20;91.19;100192.56;5014821;28;20097;-88
2022/04/01 02:16:48;;;;;;;3.50;3.20;;;;;;;0.23;90.59;100197.56;5013193;28;20057;-87
2022/04/01 02:19:21;;;;;;;4.13;3.72;;;;;;;0.20;91.04;100199.75;5014686;28;20061;-87
2022/04/01 02:21:51;;;;;;;5.47;3.47;;;;;;;0.16;90.96;100199.22;5012710;28;20028;-87
2022/04/01 02:24:18;;;;;;;4.15;3.60;;;;;;;0.17;90.75;100196.38;5013545;28;20026;-87
2022/04/01 02:26:48;;;;;;;4.25;3.50;;;;;;;0.18;90.71;100202.59;5014418;28;20038;-87
2022/04/01 02:29:20;;;;;;;3.80;3.40;;;;;;;0.16;90.85;100210.75;5013515;28;20037;-87
2022/04/01 02:31:52;;;;;;;;;;;;;;;0.22;90.53;100213.75;5014557;28;20084;-89
2022/04/01 02:34:20;;;;;;;4.53;3.83;;;;;;;0.32;90.86;100207.25;5013944;28;20372;-88
2022/04/01 02:36:45;;;;;;;4.32;3.63;;;;;;;0.21;90.78;100215.59;5014661;28;20589;-88
2022/04/01 02:39:11;;;;;;;4.40;3.85;;;;;;;0.26;90.87;100215.09;5014672;28;20045;-88
2022/04/01 02:41:39;;;;;;;4.90;4.13;;;;;;;0.30;90.65;100217.28;5013275;28;20073;-89
2022/04/01 02:44:08;;;;;;;4.95;3.60;;;;;;;0.27;90.35;100222.94;5014801;28;20036;-88
2022/04/01 02:46:39;;;;;;;4.18;3.78;;;;;;;0.24;90.70;100223.28;5012912;28;20029;-88
2022/04/01 02:49:06;;;;;;;4.40;3.30;;;;;;;0.25;90.99;100229.44;5013373;28;20030;-88
2022/04/01 02:51:37;;;;;;;4.20;3.80;;;;;;;0.26;90.81;100234.59;5013108;28;20033;-87
2022/04/01 02:54:04;;;;;;;4.15;3.75;;;;;;;0.19;91.45;100240.75;5013196;28;20363;-87
2022/04/01 02:56:32;;;;;;;4.15;3.75;;;;;;;0.21;91.40;100244.09;4996483;28;20120;-87
2022/04/01 02:58:59;;;;;;;4.55;3.95;;;;;;;0.19;91.32;100252.25;5014317;28;20086;-88
2022/04/01 03:01:28;;;;;;;4.28;3.70;;;;;;;0.23;90.75;100245.59;5012855;28;20171;-87
2022/04/01 03:03:54;;;;;;;4.00;3.60;;;;;;;0.19;90.85;100251.44;5013102;28;20033;-88
2022/04/01 03:06:19;;;;;;;3.95;3.60;;;;;;;0.18;91.23;100245.28;5012834;28;20025;-89
2022/04/01 03:08:45;;;;;;;4.25;3.78;;;;;;;0.14;91.29;100255.41;5012896;28;20042;-87
2022/04/01 03:11:11;;;;;;;3.97;3.67;;;;;;;0.12;91.37;100253.94;5012812;28;20030;-89
2022/04/01 03:13:39;;;;;;;4.13;3.65;;;;;;;0.15;91.22;100253.59;5012559;28;20088;-87
2022/04/01 03:16:07;;;;;;;4.82;4.25;;;;;;;0.19;90.82;100254.94;5012505;28;20038;-88
2022/04/01 03:18:39;;;;;;;4.95;4.43;;;;;;;0.15;91.15;100265.09;5012872;28;20072;-87
2022/04/01 03:21:05;;;;;;;5.10;4.60;;;;;;;0.13;91.16;100260.91;5012426;28;20038;-87
2022/04/01 03:23:31;;;;;;;5.18;4.65;;;;;;;0.15;91.34;100264.28;5012399;28;20041;-89
2022/04/01 03:25:56;;;;;;;4.85;4.22;;;;;;;0.21;91.09;100266.28;5028992;28;20445;-87
2022/04/01 03:28:22;;;;;;;5.50;5.00;;;;;;;0.13;90.97;100268.91;5012693;28;20033;-87
2022/04/01 03:30:51;;;;;;;5.95;5.35;;;;;;;0.08;91.00;100269.41;5012451;28;20029;-87
2022/04/01 03:33:24;;;;;;;7.25;5.85;;;;;;;0.05;91.18;100280.41;5014451;28;20033;-87
2022/04/01 03:35:52;;;;;;;5.80;5.18;;;;;;;0.01;91.39;100271.03;5016527;28;20045;-87
2022/04/01 03:38:17;;;;;;;8.20;5.63;;;;;;;0.03;91.33;100277.06;5017049;28;20065;-87
2022/04/01 03:40:49;;;;;;;5.95;5.35;;;;;;;-0.08;91.86;100277.34;5000202;28;20042;-87
2022/04/01 03:43:15;;;;;;;5.75;5.15;;;;;;;-0.08;92.12;100275.50;5016662;28;20030;-87
2022/04/01 03:45:46;;;;;;;6.43;5.30;;;;;;;-0.06;91.76;100284.19;5015736;28;20076;-86
2022/04/01 03:48:42;;;;;;;5.68;5.07;;;;;;;-0.03;91.98;100289.22;5000325;28;20029;-87
2022/04/01 03:51:09;;;;;;;6.55;5.20;;;;;;;-0.09;91.42;100281.84;5015942;28;20072;-87
2022/04/01 03:53:37;;;;;;;6.55;5.88;;;;;;;0.01;91.50;100296.88;5017486;28;20144;-87
2022/04/01 03:56:06;;;;;;;6.55;5.85;;;;;;;-0.05;91.57;100290.34;5016197;28;20042;-86
2022/04/01 06:33:32;;;;;;;1.70;1.60;;;;;;;12.64;46.73;100521.13;5070189;28;20757;-60
2022/04/01 06:36:05;;;;;;;1.10;1.10;;;;;;;13.68;46.44;100530.38;5068307;28;20457;-62
2022/04/01 06:38:40;;;;;;;0.95;0.93;;;;;;;14.51;44.76;100533.44;5070317;28;20028;-60
2022/04/01 06:41:14;;;;;;;1.20;0.77;;;;;;;15.23;45.23;100530.91;5068421;28;20020;-61
2022/04/01 06:43:40;;;;;;;0.85;0.85;;;;;;;15.74;41.85;100536.16;5067558;28;20078;-60
2022/04/01 06:46:06;;;;;;;0.75;0.75;;;;;;;16.14;41.90;100554.06;5070280;28;20044;-59
2022/04/01 06:48:32;;;;;;;0.93;0.77;;;;;;;16.46;41.46;100547.75;5070531;28;20033;-58
2022/04/01 06:50:58;;;;;;;0.60;0.60;;;;;;;16.74;40.77;100573.16;5070353;28;20036;-58
2022/04/01 06:53:24;;;;;;;0.50;0.50;;;;;;;16.99;40.52;100543.22;5069109;28;20029;-58
2022/04/01 06:55:50;;;;;;;0.43;0.32;;;;;;;17.21;39.57;100572.38;5069006;28;20039;-58
2022/04/01 06:58:15;;;;;;;0.70;0.50;;;;;;;17.39;39.24;100540.94;5070389;28;20036;-59
2022/04/01 07:00:41;;;;;;;0.40;0.40;;;;;;;17.55;39.40;100555.50;5068374;28;20058;-60
2022/04/01 07:03:08;;;;;;;0.68;0.57;;;;;;;17.70;39.08;100560.22;5069791;28;20040;-59
2022/04/01 07:05:35;;;;;;;0.45;0.45;;;;;;;17.84;38.61;100566.03;5068830;28;20393;-59
2022/04/01 07:08:07;;;;;;;0.65;0.40;;;;;;;18.02;40.49;100572.94;5068874;28;20025;-60
2022/04/01 07:10:33;;;;;;;0.90;0.52;;;;;;;18.17;38.54;100569.41;5069888;28;20358;-60
2022/04/01 07:12:59;;;;;;;0.50;0.50;;;;;;;18.31;37.77;100559.53;5069773;28;20043;-60
2022/04/01 07:15:25;;;;;;;0.60;0.60;;;;;;;18.46;37.90;100579.84;5069771;28;20044;-59
2022/04/01 07:17:51;;;;;;;0.47;0.47;;;;;;;18.57;37.72;100578.72;5070115;28;20492;-59
2022/04/01 07:20:17;;;;;;;0.57;0.50;;;;;;;18.70;37.09;100582.84;5070050;28;20028;-59
2022/04/01 07:22:42;;;;;;;0.60;0.60;;;;;;;18.80;36.83;100582.84;5068669;28;20040;-59
2022/04/01 07:25:12;;;;;;;0.45;0.45;;;;;;;18.88;36.94;100585.06;5069657;28;20103;-60
2022/04/01 07:27:38;;;;;;;0.50;0.50;;;;;;;18.95;37.32;100587.53;5069867;28;20037;-59
2022/04/01 07:30:08;;;;;;;0.50;0.50;;;;;;;19.02;37.19;100596.31;5069637;28;20040;-60
2022/04/01 07:32:35;;;;;;;1.13;0.63;;;;;;;19.13;37.48;100582.53;5069444;28;20520;-60
2022/04/01 07:35:03;;;;;;;1.75;0.50;;;;;;;19.18;37.40;100597.09;5069064;28;20044;-59
2022/04/01 07:37:29;;;;;;;0.50;0.50;;;;;;;19.21;36.90;100595.72;5069766;28;20024;-59
2022/04/01 07:39:59;;;;;;;0.52;0.50;;;;;;;19.26;36.57;100599.25;5069112;28;20024;-60
2022/04/01 07:42:26;;;;;;;0.52;0.52;;;;;;;19.31;36.86;100611.34;5067420;28;20443;-59
2022/04/01 07:44:52;;;;;;;0.40;0.40;;;;;;;19.35;36.12;100616.00;5055276;28;20024;-60
2022/04/01 07:47:18;;;;;;;0.60;0.60;;;;;;;19.38;36.16;100620.13;5050733;28;20481;-63
2022/04/01 07:49:45;;;;;;;0.57;0.57;;;;;;;19.42;36.24;100619.28;5056128;28;20052;-59
2022/04/01 07:52:13;;;;;;;0.50;0.50;;;;;;;19.48;36.84;100622.03;5043384;28;20084;-60
2022/04/01 07:54:40;;;;;;;0.70;0.52;;;;;;;19.52;36.31;100623.94;5037210;28;20534;-60
2022/04/01 07:57:07;;;;;;;0.63;0.63;;;;;;;19.54;35.56;100638.22;5053855;28;20499;-59
2022/04/01 07:59:33;;;;;;;0.50;0.50;;;;;;;19.57;35.41;100623.09;5055223;28;20534;-59
2022/04/01 08:01:59;;;;;;;0.30;0.30;;;;;;;19.58;35.67;100627.50;5056064;28;20029;-59
2022/04/01 08:04:25;;;;;;;0.70;0.70;;;;;;;19.61;35.79;100636.00;5055557;28;20123;-59
2022/04/01 08:06:51;;;;;;;0.70;0.60;;;;;;;19.65;35.66;100641.78;5055334;28;20036;-60
2022/04/01 08:09:17;;;;;;;0.60;0.60;;;;;;;19.68;35.27;100655.00;5055617;28;20120;-59
2022/04/01 08:11:43;;;;;;;0.43;0.43;;;;;;;19.68;35.14;100638.47;5055421;28;20115;-60
2022/04/01 08:14:08;;;;;;;0.50;0.43;;;;;;;19.72;35.59;100656.03;5055065;28;20538;-59
2022/04/01 08:16:34;;;;;;;0.93;0.60;;;;;;;19.74;35.06;100653.03;5054421;28;20045;-60
2022/04/01 08:18:59;;;;;;;0.30;0.30;;;;;;;19.79;35.68;100658.53;5054082;28;20496;-60
2022/04/01 08:21:25;;;;;;;0.65;0.65;;;;;;;19.78;35.03;100660.47;5055269;28;20078;-60
2022/04/01 08:23:51;;;;;;;0.30;0.30;;;;;;;19.80;35.17;100671.22;5054647;28;20037;-60
2022/04/01 08:26:16;;;;;;;0.63;0.50;;;;;;;19.80;35.49;100672.03;5055098;28;20033;-61
2022/04/01 08:28:42;;;;;;;1.15;0.60;;;;;;;19.84;35.26;100674.22;5053874;28;20029;-60
2022/04/01 08:31:09;;;;;;;0.47;0.47;;;;;;;19.87;35.39;100665.38;5055049;28;20366;-59
2022/04/01 08:33:35;;;;;;;0.50;0.50;;;;;;;19.88;34.73;100670.59;5055057;28;20036;-60
2022/04/01 08:36:00;;;;;;;0.45;0.45;;;;;;;19.87;34.80;100681.91;5055143;28;20122;-60
2022/04/01 08:38:26;;;;;;;0.77;0.77;;;;;;;19.88;35.09;100684.38;5054632;28;20506;-60
2022/04/01 08:40:52;;;;;;;0.50;0.50;;;;;;;19.90;35.03;100686.84;5053153;28;20519;-60
2022/04/01 08:43:33;;;;;;;2.80;0.73;;;;;;;19.93;37.41;100700.03;5053285;28;20041;-60
2022/04/01 08:46:02;;;;;;;0.52;0.52;;;;;;;19.91;34.65;100702.25;5054169;28;20032;-60
2022/04/01 08:48:28;;;;;;;0.70;0.70;;;;;;;19.91;34.73;100722.34;5053426;28;20044;-60
2022/04/01 08:50:54;;;;;;;0.50;0.50;;;;;;;19.92;34.91;100714.94;5054405;28;20032;-60
2022/04/01 08:53:20;;;;;;;0.60;0.60;;;;;;;19.93;35.23;100705.53;5053812;28;20116;-60
2022/04/01 08:55:52;;;;;;;0.50;0.50;;;;;;;19.96;36.05;100724.25;5053027;28;20036;-60
2022/04/01 08:58:23;;;;;;;0.60;0.60;;;;;;;19.96;34.22;100716.84;5054214;28;20090;-59
2022/04/01 09:00:52;;;;;;;1.75;0.45;;;;;;;19.99;34.83;100723.72;5054317;28;20112;-60
2022/04/01 09:03:49;;;;;;;1.63;1.00;;;;;;;17.63;37.16;100716.03;5099367;27;1683262;-87
2022/04/01 09:06:18;;;;;;;1.50;1.40;;;;;;;14.03;37.60;100734.78;5084979;28;20781;-87
2022/04/01 09:08:44;;;;;;;2.40;1.42;;;;;;;11.33;40.40;100747.25;5116884;28;20042;-87
2022/04/01 09:11:17;;;;;;;1.73;1.63;;;;;;;9.43;43.07;100739.47;5101878;28;20119;-86
2022/04/01 09:13:42;;;;;;;2.15;1.80;;;;;;;7.58;46.61;100755.78;5111522;28;20039;-87
2022/04/01 09:16:09;;;;;;;2.72;1.77;;;;;;;6.46;49.09;100760.00;5127503;28;20459;-86
2022/04/01 09:18:38;;;;;;;1.55;1.45;;;;;;;5.65;50.81;100765.38;5113058;28;20074;-87
2022/04/01 09:21:06;;;;;;;1.88;1.77;;;;;;;4.98;53.93;100772.41;5130336;28;20468;-86
2022/04/01 09:23:45;;;;;;;1.80;1.70;;;;;;;4.45;53.50;100769.56;5129993;28;20035;-86
2022/04/01 09:26:10;;;;;;;2.55;2.30;;;;;;;3.97;58.26;100788.41;5131222;27;20468;-86
2022/04/01 09:28:42;;;;;;;1.98;1.88;;;;;;;3.67;57.02;100772.06;5131324;27;20079;-86
2022/04/01 09:31:10;;;;;;;4.00;2.05;;;;;;;3.47;60.45;100772.47;5130363;28;20475;-85
2022/04/01 09:33:57;;;;;;;2.30;2.00;;;;;;;3.49;56.77;100778.47;5129847;28;20035;-85
2022/04/01 09:36:29;;;;;;;2.67;1.88;;;;;;;3.38;58.55;100794.94;5129952;28;20071;-86
2022/04/01 09:38:56;;;;;;;3.13;2.10;;;;;;;3.36;58.06;100796.94;5129733;28;20122;-86
2022/04/01 09:41:31;;;;;;;2.00;1.80;;;;;;;3.38;59.16;100792.25;5130017;28;20057;-85
2022/04/01 09:44:05;;;;;;;1.90;1.70;;;;;;;3.40;58.12;100792.91;5115616;28;20032;-85
2022/04/01 09:46:31;;;;;;;2.88;1.90;;;;;;;3.42;60.39;100795.44;5109003;28;20491;-85
2022/04/01 09:48:58;;;;;;;1.88;1.70;;;;;;;3.28;60.89;100797.78;5110536;28;20063;-85
2022/04/01 09:51:29;;;;;;;2.45;1.92;;;;;;;3.33;59.87;100808.00;5109138;28;20031;-85
2022/04/01 09:53:58;;;;;;;2.65;1.90;;;;;;;3.29;60.48;100796.78;5108942;28;20024;-85
2022/04/01 09:56:41;;;;;;;2.42;1.75;;;;;;;3.30;59.47;100802.97;5092869;28;20385;-85
2022/04/01 09:59:08;;;;;;;1.80;1.70;;;;;;;3.26;60.36;100793.59;5108892;28;20042;-85
2022/04/01 10:01:35;;;;;;;2.78;1.85;;;;;;;3.27;60.94;100798.78;5091917;28;20031;-84
2022/04/01 10:04:01;;;;;;;1.83;1.73;;;;;;;3.25;60.54;100798.13;5108859;28;20060;-85
2022/04/01 10:06:28;;;;;;;1.88;1.30;;;;;;;3.28;60.67;100803.16;5108612;28;20027;-85
2022/04/01 10:08:56;;;;;;;2.03;1.60;;;;;;;3.20;61.58;100810.38;5108745;28;20055;-84
2022/04/01 10:11:25;;;;;;;2.28;1.60;;;;;;;3.08;61.71;100808.00;5108581;28;20165;-85
2022/04/01 10:13:52;;;;;;;1.70;1.60;;;;;;;3.02;62.24;100810.53;5110764;28;20494;-85
2022/04/01 10:28:12;;;;;;;5.28;1.90;;;;;;;15.58;36.55;100789.47;5111095;27;20178;-85
2022/04/01 10:30:40;;;;;;;1.90;1.70;;;;;;;12.42;41.81;100788.34;5076177;28;20081;-86
2022/04/01 10:36:22;;;;;;;2.08;1.73;;;;;;;8.41;54.50;100801.75;5098374;28;20040;-85
2022/04/01 10:39:08;;;;;;;;;;;;;;;;;;;;;
2022/04/01 10:41:34;;;;;;;2.13;1.92;;;;;;;6.15;56.16;100804.19;5090805;28;20035;-86
2022/04/01 10:44:06;;;;;;;3.13;2.13;;;;;;;5.52;57.53;100798.28;5072399;28;20048;-86
2022/04/01 10:46:37;;;;;;;3.20;2.25;;;;;;;5.05;59.69;100817.19;5071951;28;20541;-86
2022/04/01 10:52:25;;;;;;;3.67;2.22;;;;;;;4.52;61.25;100822.41;5090681;28;20085;-85
2022/04/01 10:55:10;;;;;;;3.05;2.70;;;;;;;4.13;62.58;100820.56;4995012;28;20034;-85
2022/04/01 10:57:44;;;;;;;4.50;3.45;;;;;;;3.78;64.31;100811.13;5067602;28;20041;-85
2022/04/01 11:00:14;;;;;;;4.55;3.08;;;;;;;3.66;64.66;100818.69;5090299;28;20024;-85
2022/04/01 11:02:41;;;;;;;4.57;2.97;;;;;;;3.56;65.05;100829.63;5072315;28;20040;-85
2022/04/01 11:05:31;;;;;;;4.60;2.85;;;;;;;3.50;64.24;100825.78;5074778;28;20100;-86
2022/04/01 11:08:52;;;;;;;4.10;3.00;;;;;;;3.61;63.73;100840.66;5082608;28;20035;-86
2022/04/01 11:11:26;;;;;;;3.65;2.83;;;;;;;3.33;64.26;100841.03;4986725;28;20027;-86
2022/04/01 11:14:03;;;;;;;3.10;2.72;;;;;;;3.32;64.16;100841.19;5070409;28;20135;-85
2022/04/01 11:16:48;;;;;;;3.80;3.03;;;;;;;3.16;64.06;100842.06;5071427;28;20127;-86
2022/04/01 11:19:18;;;;;;;3.85;3.00;;;;;;;3.06;64.63;100842.19;5090488;28;20060;-85
2022/04/01 11:21:47;;;;;;;6.88;3.10;;;;;;;3.04;65.05;100832.63;5090092;28;20032;-85
2022/04/01 11:24:34;;;;;;;3.33;2.88;;;;;;;3.15;64.30;100851.91;5086140;28;20059;-86
2022/04/01 11:27:23;;;;;;;6.95;3.28;;;;;;;3.11;64.02;100847.88;5080247;28;20076;-85
2022/04/01 11:30:13;;;;;;;5.07;3.60;;;;;;;2.97;64.59;100846.72;5076574;28;20476;-86
2022/04/01 11:32:44;;;;;;;5.07;3.30;;;;;;;2.96;65.65;100839.66;5071689;28;20376;-85
2022/04/01 11:35:11;;;;;;;4.97;3.35;;;;;;;2.98;66.45;100856.44;5077277;28;20103;-85
2022/04/01 11:37:44;;;;;;;4.85;3.60;;;;;;;3.05;65.48;100853.91;5082650;28;20024;-85
2022/04/01 11:40:14;;;;;;;;;;;;;;;3.09;64.27;100862.47;5078746;28;20028;-85
2022/04/01 11:43:02;;;;;;;3.90;3.22;;;;;;;2.97;65.23;100848.56;5078158;28;20025;-85
2022/04/01 11:45:33;;;;;;;4.05;3.28;;;;;;;2.91;67.23;100854.56;5077889;28;20031;-85
2022/04/01 11:47:59;;;;;;;6.13;3.45;;;;;;;3.01;67.20;100859.78;5077887;28;20020;-85
2022/04/01 11:50:25;;;;;;;4.97;3.35;;;;;;;2.97;67.04;100846.72;5078380;28;20035;-85
2022/04/01 11:53:00;;;;;;;4.80;3.58;;;;;;;3.02;67.40;100858.78;5078064;28;20032;-85
2022/04/01 11:55:28;;;;;;;4.50;3.53;;;;;;;2.98;67.60;100839.50;5077882;28;20020;-85
2022/04/01 11:57:58;;;;;;;5.70;3.70;;;;;;;3.02;67.17;100864.16;5061373;28;20369;-85
2022/04/01 12:00:27;;;;;;;5.25;3.78;;;;;;;2.97;68.06;100848.56;5095980;28;20031;-85
2022/04/01 12:02:55;;;;;;;6.22;3.92;;;;;;;2.94;67.75;100855.09;5077742;28;20036;-85
2022/04/01 12:05:22;;;;;;;6.45;3.80;;;;;;;2.87;68.74;100858.59;5077736;28;20505;-85
2022/04/01 12:10:56;;;;;;;5.35;4.05;;;;;;;2.86;68.08;100854.22;5095872;28;20089;-85
2022/04/01 12:13:23;;;;;;;5.95;4.00;;;;;;;2.95;69.40;100867.50;5095503;28;20031;-85
2022/04/01 12:15:52;;;;;;;7.65;4.63;;;;;;;3.04;67.51;100871.03;5076649;28;20123;-85
2022/04/01 12:18:26;;;;;;;7.35;4.95;;;;;;;3.07;68.13;100868.00;5095499;28;20036;-85
2022/04/01 12:21:00;;;;;;;5.40;3.90;;;;;;;3.16;66.86;100882.28;5077467;28;20040;-85
2022/04/01 12:23:28;;;;;;;5.95;4.47;;;;;;;3.02;67.90;100870.34;5076669;28;20043;-85
2022/04/01 12:25:55;;;;;;;5.32;4.05;;;;;;;3.02;67.95;100856.09;5077171;28;20032;-85
2022/04/01 12:28:42;;;;;;;5.82;4.55;;;;;;;3.12;67.29;100881.75;5059313;28;20065;-85
2022/04/01 12:31:27;;;;;;;6.03;4.10;;;;;;;3.08;68.09;100868.84;5056788;28;20074;-85
2022/04/01 12:33:55;;;;;;;10.20;5.38;;;;;;;3.13;68.14;100880.75;5056975;28;20035;-85
2022/04/01 12:36:34;;;;;;;5.90;4.60;;;;;;;3.13;67.81;100893.28;5057344;28;20041;-85
2022/04/01 12:39:08;;;;;;;5.03;4.22;;;;;;;3.15;67.67;100889.44;5057041;28;20064;-85
2022/04/01 12:41:49;;;;;;;5.75;4.00;;;;;;;3.24;66.74;100897.53;5057011;28;20538;-85
2022/04/01 12:44:15;;;;;;;5.47;4.13;;;;;;;3.25;65.94;100880.41;5056706;28;20043;-84
2022/04/01 12:46:47;;;;;;;5.93;4.25;;;;;;;3.19;65.50;100902.53;5039589;28;20044;-85
2022/04/01 12:49:19;;;;;;;5.15;4.10;;;;;;;3.09;65.87;100900.84;5056644;28;20032;-84
2022/04/01 12:51:52;;;;;;;5.15;4.20;;;;;;;3.14;66.15;100903.03;5074362;28;20029;-84
2022/04/01 12:54:34;;;;;;;6.07;4.40;;;;;;;3.06;66.07;100895.00;5056853;28;20056;-84
2022/04/01 12:57:09;;;;;;;4.85;4.35;;;;;;;2.99;67.25;100902.84;5056857;28;20036;-84
2022/04/01 12:59:39;;;;;;;6.10;4.50;;;;;;;2.96;68.17;100900.47;5056667;28;20078;-84
2022/04/01 13:02:05;;;;;;;7.80;4.90;;;;;;;2.94;67.96;100923.94;5048859;28;20067;-84
2022/04/01 13:04:42;;;;;;;6.95;4.82;;;;;;;2.91;68.29;100900.97;5036600;28;20076;-84
2022/04/01 13:07:16;;;;;;;7.03;5.00;;;;;;;2.91;69.00;100921.56;5054155;28;20480;-84
2022/04/01 13:09:53;;;;;;;8.07;4.80;;;;;;;3.03;68.61;100912.22;5019950;28;20063;-84
2022/04/01 13:12:43;;;;;;;8.82;4.90;;;;;;;3.21;67.45;100911.25;5020087;28;20037;-84
2022/04/01 13:15:13;;;;;;;6.10;5.15;;;;;;;3.37;67.35;100918.50;5037016;28;20032;-84
2022/04/01 13:17:43;;;;;;;6.25;4.80;;;;;;;3.56;66.78;100925.34;5053534;28;20039;-84
2022/04/01 13:20:10;;;;;;;7.07;5.10;;;;;;;3.59;66.27;100923.19;5036334;28;20389;-84
2022/04/01 13:22:39;;;;;;;6.50;5.10;;;;;;;3.61;66.14;100928.38;5036236;28;20032;-84
2022/04/01 13:25:05;;;;;;;5.45;4.75;;;;;;;3.65;65.62;100921.69;5036632;28;20033;-84
2022/04/01 13:27:31;;;;;;;6.25;4.97;;;;;;;3.56;65.50;100936.94;5035649;28;20094;-84
2022/04/01 13:30:00;;;;;;;5.35;4.57;;;;;;;3.44;66.03;100928.38;5053884;28;20118;-86
2022/04/01 13:32:25;;;;;;;6.90;4.85;;;;;;;3.44;66.23;100925.69;5036032;28;20059;-85
2022/04/01 13:34:52;;;;;;;7.38;4.70;;;;;;;3.65;65.52;100930.56;5036779;28;20075;-85
2022/04/01 13:37:18;;;;;;;6.63;5.20;;;;;;;3.67;66.29;100933.06;5036453;28;20025;-85
2022/04/01 13:39:45;;;;;;;6.75;5.13;;;;;;;3.70;66.64;100930.06;5019504;28;20044;-84
2022/04/01 13:42:11;;;;;;;7.20;5.00;;;;;;;3.81;67.75;100945.81;5054033;28;20036;-85
2022/04/01 13:44:37;;;;;;;6.90;4.97;;;;;;;3.73;67.50;100931.56;5036017;28;20492;-85
2022/04/01 13:47:04;;;;;;;8.63;5.25;;;;;;;3.82;66.81;100925.19;5035174;28;20461;-85
2022/04/01 13:49:29;;;;;;;6.25;5.30;;;;;;;3.83;67.24;100932.22;5035833;28;20130;-85
2022/04/01 13:51:55;;;;;;;5.38;4.82;;;;;;;3.88;66.24;100947.81;5035401;28;20025;-85
2022/04/01 13:54:21;;;;;;;5.90;4.88;;;;;;;3.81;66.25;100932.41;5035676;28;20056;-85
2022/04/01 13:56:50;;;;;;;7.82;5.53;;;;;;;3.97;66.39;100919.97;5035811;28;20032;-85
2022/04/01 13:59:17;;;;;;;6.68;5.60;;;;;;;4.55;65.43;100934.09;5035807;28;20032;-85
2022/04/01 14:01:43;;;;;;;6.70;5.22;;;;;;;5.02;63.38;100935.03;5035616;28;20040;-84
2022/04/01 14:04:11;;;;;;;5.80;5.13;;;;;;;5.36;61.47;100914.97;5036094;28;20033;-84
2022/04/01 14:06:36;;;;;;;6.95;5.57;;;;;;;5.91;59.49;100916.53;5019294;28;20056;-84
2022/04/01 14:09:06;;;;;;;5.32;4.82;;;;;;;6.29;59.21;100935.38;5035473;28;20459;-84
2022/04/01 14:11:41;;;;;;;5.53;4.90;;;;;;;6.65;57.36;100937.31;5035207;28;20029;-84
2022/04/01 14:14:08;;;;;;;6.63;5.03;;;;;;;6.86;56.24;100924.94;5053467;28;20112;-84
2022/04/01 14:16:35;;;;;;;5.40;4.90;;;;;;;6.73;56.72;100920.22;5035469;28;20075;-85
2022/04/01 14:19:03;;;;;;;7.88;5.20;;;;;;;6.51;56.38;100922.03;5035344;28;20025;-84
2022/04/01 14:21:31;;;;;;;6.82;4.80;;;;;;;6.08;58.11;100932.56;5003265;28;20127;-85
2022/04/01 14:23:57;;;;;;;6.28;5.00;;;;;;;5.69;58.31;100937.09;5035454;28;20537;-85
2022/04/01 14:26:27;;;;;;;6.95;5.18;;;;;;;5.41;59.54;100937.66;5036285;28;20132;-85
2022/04/01 14:30:17;;;;;;;6.05;5.03;;;;;;;5.36;60.52;100939.19;5055306;28;20123;-85
2022/04/01 14:32:01;;;;;;;7.45;5.18;;;;;;;5.22;59.48;100930.88;5057953;28;20075;-84
2022/04/01 14:34:35;;;;;;;;;;;;;;;5.51;60.08;100939.28;5073786;28;20032;-84
2022/04/01 14:37:01;;;;;;;7.65;5.57;;;;;;;5.22;59.54;100930.06;5055046;28;19924;-84
2022/04/01 14:39:28;;;;;;;5.60;5.00;;;;;;;5.33;58.84;100947.63;5073146;28;20032;-84
2022/04/01 14:41:54;;;;;;;7.07;4.82;;;;;;;5.07;58.89;100938.88;5055005;28;20115;-84
2022/04/01 14:44:20;;;;;;;6.20;5.22;;;;;;;4.85;58.85;100926.22;5055101;28;20119;-84
2022/04/01 14:46:47;;;;;;;6.55;5.30;;;;;;;4.65;59.32;100948.16;5054344;28;20025;-84